Days Creek, Oregon
Current Conditions -  °F | °C
As of 3:53 PM on Friday 31 Oct 2014 (Local Time) from KRBG Reporting Station
Scattered Clouds Scattered Clouds  
Wind Chill: 60°   Ceiling: Unl
Heat Index: 60°   Visibility: 10mi
Dew Point: 45°   Wind: 3mph
Humidity: 57%   Direction: 350°N
Pressure: 29.82"   Gusts: NA
Location:  42.97°N, 123.17°W
Report Text: KRBG 312253Z AUTO 35003KT 10SM SCT032 SCT065 16/07 A2982 RMK AO2 SLP098 T01560072
Loading
Personal Weather Stations






























Interactive Weather Map
Tropical Storm Tracking
New forecast layout! Learn more

10-Day Weather Forecast

Advertisements
Track Severe Weather on mobile